sensor_id;sensor_type;location;lat;lon;timestamp;P1;durP1;ratioP1;P2;durP2;ratioP2
8803;SDS011;4438;50.890;4.726;2023-11-22T00:00:46;20.67;;;16.90;;
8803;SDS011;4438;50.890;4.726;2023-11-22T00:03:12;21.67;;;16.73;;
8803;SDS011;4438;50.890;4.726;2023-11-22T00:05:38;20.80;;;17.67;;
8803;SDS011;4438;50.890;4.726;2023-11-22T00:08:04;20.80;;;17.47;;
8803;SDS011;4438;50.890;4.726;2023-11-22T00:10:30;19.77;;;16.87;;
8803;SDS011;4438;50.890;4.726;2023-11-22T00:12:56;20.47;;;16.27;;
8803;SDS011;4438;50.890;4.726;2023-11-22T00:15:23;20.30;;;16.93;;
8803;SDS011;4438;50.890;4.726;2023-11-22T00:17:51;20.03;;;17.27;;
8803;SDS011;4438;50.890;4.726;2023-11-22T00:20:17;22.53;;;18.30;;
8803;SDS011;4438;50.890;4.726;2023-11-22T00:22:44;21.83;;;17.67;;
8803;SDS011;4438;50.890;4.726;2023-11-22T00:25:13;23.13;;;18.70;;
8803;SDS011;4438;50.890;4.726;2023-11-22T00:27:39;24.33;;;18.70;;
8803;SDS011;4438;50.890;4.726;2023-11-22T00:30:05;23.50;;;18.53;;
8803;SDS011;4438;50.890;4.726;2023-11-22T00:32:31;23.87;;;18.60;;
8803;SDS011;4438;50.890;4.726;2023-11-22T00:34:57;24.03;;;19.23;;
8803;SDS011;4438;50.890;4.726;2023-11-22T00:37:23;25.13;;;19.57;;
8803;SDS011;4438;50.890;4.726;2023-11-22T00:39:50;25.80;;;20.17;;
8803;SDS011;4438;50.890;4.726;2023-11-22T00:42:16;25.87;;;19.97;;
8803;SDS011;4438;50.890;4.726;2023-11-22T00:44:45;27.40;;;21.50;;
8803;SDS011;4438;50.890;4.726;2023-11-22T00:47:12;24.43;;;20.13;;
8803;SDS011;4438;50.890;4.726;2023-11-22T00:49:38;28.30;;;21.23;;
8803;SDS011;4438;50.890;4.726;2023-11-22T00:52:04;26.63;;;19.80;;
8803;SDS011;4438;50.890;4.726;2023-11-22T00:54:32;28.03;;;21.43;;
8803;SDS011;4438;50.890;4.726;2023-11-22T00:56:58;30.10;;;21.47;;
8803;SDS011;4438;50.890;4.726;2023-11-22T00:59:25;26.87;;;20.40;;
8803;SDS011;4438;50.890;4.726;2023-11-22T01:01:51;25.13;;;19.30;;
8803;SDS011;4438;50.890;4.726;2023-11-22T01:04:17;25.53;;;19.90;;
8803;SDS011;4438;50.890;4.726;2023-11-22T01:06:44;28.50;;;20.60;;
8803;SDS011;4438;50.890;4.726;2023-11-22T01:09:10;25.73;;;20.00;;
8803;SDS011;4438;50.890;4.726;2023-11-22T01:11:38;26.83;;;20.37;;
8803;SDS011;4438;50.890;4.726;2023-11-22T01:14:04;28.07;;;20.87;;
8803;SDS011;4438;50.890;4.726;2023-11-22T01:16:30;28.17;;;21.13;;
8803;SDS011;4438;50.890;4.726;2023-11-22T01:18:57;22.20;;;19.07;;
8803;SDS011;4438;50.890;4.726;2023-11-22T01:21:23;26.67;;;20.90;;
8803;SDS011;4438;50.890;4.726;2023-11-22T01:23:50;24.50;;;19.30;;
8803;SDS011;4438;50.890;4.726;2023-11-22T01:26:16;27.13;;;21.30;;
8803;SDS011;4438;50.890;4.726;2023-11-22T01:28:42;24.37;;;18.83;;
8803;SDS011;4438;50.890;4.726;2023-11-22T01:31:12;23.33;;;18.60;;
8803;SDS011;4438;50.890;4.726;2023-11-22T01:33:39;25.93;;;19.90;;
8803;SDS011;4438;50.890;4.726;2023-11-22T01:36:05;25.03;;;19.30;;
8803;SDS011;4438;50.890;4.726;2023-11-22T01:38:31;26.97;;;20.67;;
8803;SDS011;4438;50.890;4.726;2023-11-22T01:40:57;25.80;;;20.10;;
8803;SDS011;4438;50.890;4.726;2023-11-22T01:43:26;27.03;;;19.83;;
8803;SDS011;4438;50.890;4.726;2023-11-22T01:45:53;26.43;;;20.57;;
8803;SDS011;4438;50.890;4.726;2023-11-22T01:48:20;28.47;;;20.23;;
8803;SDS011;4438;50.890;4.726;2023-11-22T01:50:46;27.43;;;20.00;;
8803;SDS011;4438;50.890;4.726;2023-11-22T01:53:13;25.67;;;20.23;;
8803;SDS011;4438;50.890;4.726;2023-11-22T01:55:41;28.70;;;20.90;;
8803;SDS011;4438;50.890;4.726;2023-11-22T01:58:08;29.63;;;20.90;;
8803;SDS011;4438;50.890;4.726;2023-11-22T02:00:52;27.80;;;21.03;;
8803;SDS011;4438;50.890;4.726;2023-11-22T02:03:19;28.17;;;22.03;;
8803;SDS011;4438;50.890;4.726;2023-11-22T02:05:46;26.80;;;21.47;;
8803;SDS011;4438;50.890;4.726;2023-11-22T02:08:12;27.10;;;21.17;;
8803;SDS011;4438;50.890;4.726;2023-11-22T02:10:39;30.23;;;21.60;;
8803;SDS011;4438;50.890;4.726;2023-11-22T02:13:05;29.20;;;21.77;;
8803;SDS011;4438;50.890;4.726;2023-11-22T02:15:36;29.87;;;21.20;;
8803;SDS011;4438;50.890;4.726;2023-11-22T02:18:03;29.70;;;22.67;;
8803;SDS011;4438;50.890;4.726;2023-11-22T02:20:30;29.73;;;20.63;;
8803;SDS011;4438;50.890;4.726;2023-11-22T02:22:57;31.20;;;22.47;;
8803;SDS011;4438;50.890;4.726;2023-11-22T02:25:23;31.07;;;21.97;;
8803;SDS011;4438;50.890;4.726;2023-11-22T02:27:49;29.73;;;21.70;;
8803;SDS011;4438;50.890;4.726;2023-11-22T02:30:15;29.57;;;21.87;;
8803;SDS011;4438;50.890;4.726;2023-11-22T02:32:41;28.23;;;21.43;;
8803;SDS011;4438;50.890;4.726;2023-11-22T02:35:07;32.53;;;21.03;;
8803;SDS011;4438;50.890;4.726;2023-11-22T02:37:34;30.07;;;21.10;;
8803;SDS011;4438;50.890;4.726;2023-11-22T02:40:05;27.37;;;20.23;;
8803;SDS011;4438;50.890;4.726;2023-11-22T02:42:33;25.47;;;20.17;;
8803;SDS011;4438;50.890;4.726;2023-11-22T02:44:59;28.10;;;20.17;;
8803;SDS011;4438;50.890;4.726;2023-11-22T02:47:25;29.40;;;21.20;;
8803;SDS011;4438;50.890;4.726;2023-11-22T02:49:51;27.87;;;20.43;;
8803;SDS011;4438;50.890;4.726;2023-11-22T02:52:17;30.73;;;21.50;;
8803;SDS011;4438;50.890;4.726;2023-11-22T02:54:43;28.60;;;21.63;;
8803;SDS011;4438;50.890;4.726;2023-11-22T02:57:12;29.80;;;21.37;;
8803;SDS011;4438;50.890;4.726;2023-11-22T02:59:42;29.83;;;21.53;;
8803;SDS011;4438;50.890;4.726;2023-11-22T03:02:08;29.50;;;22.17;;
8803;SDS011;4438;50.890;4.726;2023-11-22T03:04:34;29.63;;;21.37;;
8803;SDS011;4438;50.890;4.726;2023-11-22T03:07:00;31.17;;;22.10;;
8803;SDS011;4438;50.890;4.726;2023-11-22T03:09:26;28.00;;;21.67;;
8803;SDS011;4438;50.890;4.726;2023-11-22T03:11:53;27.17;;;20.37;;
8803;SDS011;4438;50.890;4.726;2023-11-22T03:14:19;30.20;;;21.30;;
8803;SDS011;4438;50.890;4.726;2023-11-22T03:16:45;28.10;;;20.03;;
8803;SDS011;4438;50.890;4.726;2023-11-22T03:19:12;26.73;;;20.50;;
8803;SDS011;4438;50.890;4.726;2023-11-22T03:21:38;25.43;;;19.77;;
8803;SDS011;4438;50.890;4.726;2023-11-22T03:24:06;26.73;;;20.47;;
8803;SDS011;4438;50.890;4.726;2023-11-22T03:26:33;23.83;;;19.00;;
8803;SDS011;4438;50.890;4.726;2023-11-22T03:28:59;25.53;;;20.43;;
8803;SDS011;4438;50.890;4.726;2023-11-22T03:31:26;24.23;;;19.53;;
8803;SDS011;4438;50.890;4.726;2023-11-22T03:33:52;24.07;;;19.00;;
8803;SDS011;4438;50.890;4.726;2023-11-22T03:36:19;23.27;;;18.67;;
8803;SDS011;4438;50.890;4.726;2023-11-22T03:38:45;22.20;;;18.20;;
8803;SDS011;4438;50.890;4.726;2023-11-22T03:41:12;23.57;;;18.73;;
8803;SDS011;4438;50.890;4.726;2023-11-22T03:43:38;21.23;;;17.60;;
8803;SDS011;4438;50.890;4.726;2023-11-22T03:46:04;20.83;;;17.47;;
8803;SDS011;4438;50.890;4.726;2023-11-22T03:48:30;21.77;;;16.50;;
8803;SDS011;4438;50.890;4.726;2023-11-22T03:50:56;21.33;;;17.30;;
8803;SDS011;4438;50.890;4.726;2023-11-22T03:53:22;20.63;;;16.40;;
8803;SDS011;4438;50.890;4.726;2023-11-22T03:55:49;18.90;;;16.47;;
8803;SDS011;4438;50.890;4.726;2023-11-22T03:58:15;19.30;;;15.40;;
8803;SDS011;4438;50.890;4.726;2023-11-22T04:00:43;19.93;;;16.17;;
8803;SDS011;4438;50.890;4.726;2023-11-22T04:03:09;18.97;;;15.17;;
8803;SDS011;4438;50.890;4.726;2023-11-22T04:05:35;20.03;;;16.27;;
8803;SDS011;4438;50.890;4.726;2023-11-22T04:08:01;19.33;;;16.20;;
8803;SDS011;4438;50.890;4.726;2023-11-22T04:10:27;20.00;;;16.07;;
8803;SDS011;4438;50.890;4.726;2023-11-22T04:12:53;18.13;;;15.90;;
8803;SDS011;4438;50.890;4.726;2023-11-22T04:15:19;18.83;;;15.13;;
8803;SDS011;4438;50.890;4.726;2023-11-22T04:17:45;21.60;;;16.87;;
8803;SDS011;4438;50.890;4.726;2023-11-22T04:20:12;19.20;;;16.33;;
8803;SDS011;4438;50.890;4.726;2023-11-22T04:22:43;18.10;;;15.23;;
8803;SDS011;4438;50.890;4.726;2023-11-22T04:25:13;19.97;;;16.23;;
8803;SDS011;4438;50.890;4.726;2023-11-22T04:27:39;19.03;;;16.40;;
8803;SDS011;4438;50.890;4.726;2023-11-22T04:30:06;19.07;;;16.57;;
8803;SDS011;4438;50.890;4.726;2023-11-22T04:32:39;19.93;;;16.40;;
8803;SDS011;4438;50.890;4.726;2023-11-22T04:35:07;19.60;;;16.43;;
8803;SDS011;4438;50.890;4.726;2023-11-22T04:37:33;21.00;;;16.37;;
8803;SDS011;4438;50.890;4.726;2023-11-22T04:39:59;22.97;;;15.53;;
8803;SDS011;4438;50.890;4.726;2023-11-22T04:42:26;21.10;;;14.33;;
8803;SDS011;4438;50.890;4.726;2023-11-22T04:44:55;15.17;;;13.20;;
8803;SDS011;4438;50.890;4.726;2023-11-22T04:47:21;20.80;;;12.43;;
8803;SDS011;4438;50.890;4.726;2023-11-22T04:49:48;14.17;;;12.10;;
8803;SDS011;4438;50.890;4.726;2023-11-22T04:52:14;12.57;;;11.27;;
8803;SDS011;4438;50.890;4.726;2023-11-22T04:54:40;12.97;;;11.57;;
8803;SDS011;4438;50.890;4.726;2023-11-22T04:57:07;14.03;;;12.20;;
8803;SDS011;4438;50.890;4.726;2023-11-22T04:59:33;12.93;;;11.63;;
8803;SDS011;4438;50.890;4.726;2023-11-22T05:01:59;14.70;;;13.07;;
8803;SDS011;4438;50.890;4.726;2023-11-22T05:04:25;24.70;;;13.13;;
8803;SDS011;4438;50.890;4.726;2023-11-22T05:06:52;14.13;;;12.27;;
8803;SDS011;4438;50.890;4.726;2023-11-22T05:09:18;13.77;;;12.33;;
8803;SDS011;4438;50.890;4.726;2023-11-22T05:11:45;17.30;;;14.07;;
8803;SDS011;4438;50.890;4.726;2023-11-22T05:14:11;14.30;;;12.80;;
8803;SDS011;4438;50.890;4.726;2023-11-22T05:16:38;15.43;;;13.70;;
8803;SDS011;4438;50.890;4.726;2023-11-22T05:19:04;21.23;;;15.80;;
8803;SDS011;4438;50.890;4.726;2023-11-22T05:21:31;27.20;;;18.57;;
8803;SDS011;4438;50.890;4.726;2023-11-22T05:23:57;22.00;;;17.30;;
8803;SDS011;4438;50.890;4.726;2023-11-22T05:26:24;22.13;;;16.67;;
8803;SDS011;4438;50.890;4.726;2023-11-22T05:28:50;24.47;;;18.70;;
8803;SDS011;4438;50.890;4.726;2023-11-22T05:31:19;30.97;;;20.83;;
8803;SDS011;4438;50.890;4.726;2023-11-22T05:33:45;29.80;;;20.67;;
8803;SDS011;4438;50.890;4.726;2023-11-22T05:36:11;30.47;;;21.33;;
8803;SDS011;4438;50.890;4.726;2023-11-22T05:38:37;27.33;;;21.10;;
8803;SDS011;4438;50.890;4.726;2023-11-22T05:41:05;28.53;;;20.63;;
8803;SDS011;4438;50.890;4.726;2023-11-22T05:43:31;30.43;;;21.77;;
8803;SDS011;4438;50.890;4.726;2023-11-22T05:45:57;32.43;;;21.83;;
8803;SDS011;4438;50.890;4.726;2023-11-22T05:48:23;29.00;;;20.93;;
8803;SDS011;4438;50.890;4.726;2023-11-22T05:50:49;30.13;;;21.63;;
8803;SDS011;4438;50.890;4.726;2023-11-22T05:53:15;30.37;;;21.07;;
8803;SDS011;4438;50.890;4.726;2023-11-22T05:55:47;29.57;;;21.63;;
8803;SDS011;4438;50.890;4.726;2023-11-22T05:58:14;36.37;;;23.57;;
8803;SDS011;4438;50.890;4.726;2023-11-22T06:00:44;29.53;;;21.17;;
8803;SDS011;4438;50.890;4.726;2023-11-22T06:03:11;30.37;;;21.53;;
8803;SDS011;4438;50.890;4.726;2023-11-22T06:05:38;31.13;;;22.17;;
8803;SDS011;4438;50.890;4.726;2023-11-22T06:08:04;29.73;;;21.27;;
8803;SDS011;4438;50.890;4.726;2023-11-22T06:10:30;33.93;;;23.30;;
8803;SDS011;4438;50.890;4.726;2023-11-22T06:12:56;27.60;;;21.37;;
8803;SDS011;4438;50.890;4.726;2023-11-22T06:15:22;38.40;;;23.10;;
8803;SDS011;4438;50.890;4.726;2023-11-22T06:17:48;32.27;;;22.53;;
8803;SDS011;4438;50.890;4.726;2023-11-22T06:20:15;31.80;;;22.80;;
8803;SDS011;4438;50.890;4.726;2023-11-22T06:22:41;32.20;;;21.93;;
8803;SDS011;4438;50.890;4.726;2023-11-22T06:25:13;30.43;;;21.73;;
8803;SDS011;4438;50.890;4.726;2023-11-22T06:27:40;32.37;;;21.23;;
8803;SDS011;4438;50.890;4.726;2023-11-22T06:30:06;32.53;;;22.90;;
8803;SDS011;4438;50.890;4.726;2023-11-22T06:32:34;31.60;;;22.17;;
8803;SDS011;4438;50.890;4.726;2023-11-22T06:35:00;32.97;;;23.17;;
8803;SDS011;4438;50.890;4.726;2023-11-22T06:37:28;33.97;;;23.77;;
8803;SDS011;4438;50.890;4.726;2023-11-22T06:39:54;34.97;;;24.53;;
8803;SDS011;4438;50.890;4.726;2023-11-22T06:42:22;34.33;;;23.53;;
8803;SDS011;4438;50.890;4.726;2023-11-22T06:44:48;32.23;;;21.23;;
8803;SDS011;4438;50.890;4.726;2023-11-22T06:47:15;29.07;;;21.17;;
8803;SDS011;4438;50.890;4.726;2023-11-22T06:49:42;30.50;;;21.77;;
8803;SDS011;4438;50.890;4.726;2023-11-22T06:52:09;31.00;;;21.73;;
8803;SDS011;4438;50.890;4.726;2023-11-22T06:54:35;30.03;;;21.77;;
8803;SDS011;4438;50.890;4.726;2023-11-22T06:57:04;34.80;;;23.90;;
8803;SDS011;4438;50.890;4.726;2023-11-22T06:59:30;31.70;;;22.90;;
8803;SDS011;4438;50.890;4.726;2023-11-22T07:01:56;30.53;;;22.00;;
8803;SDS011;4438;50.890;4.726;2023-11-22T07:04:22;31.27;;;22.07;;
8803;SDS011;4438;50.890;4.726;2023-11-22T07:06:48;34.10;;;23.30;;
8803;SDS011;4438;50.890;4.726;2023-11-22T07:09:15;31.63;;;22.23;;
8803;SDS011;4438;50.890;4.726;2023-11-22T07:11:41;30.73;;;21.87;;
8803;SDS011;4438;50.890;4.726;2023-11-22T07:14:09;32.43;;;20.83;;
8803;SDS011;4438;50.890;4.726;2023-11-22T07:16:35;30.00;;;20.63;;
8803;SDS011;4438;50.890;4.726;2023-11-22T07:19:02;31.00;;;21.20;;
8803;SDS011;4438;50.890;4.726;2023-11-22T07:21:29;33.63;;;22.20;;
8803;SDS011;4438;50.890;4.726;2023-11-22T07:23:55;30.70;;;21.37;;
8803;SDS011;4438;50.890;4.726;2023-11-22T07:26:21;35.50;;;22.93;;
8803;SDS011;4438;50.890;4.726;2023-11-22T07:28:47;36.23;;;22.70;;
8803;SDS011;4438;50.890;4.726;2023-11-22T07:31:13;33.47;;;22.00;;
8803;SDS011;4438;50.890;4.726;2023-11-22T07:33:40;38.40;;;23.53;;
8803;SDS011;4438;50.890;4.726;2023-11-22T07:36:06;40.63;;;26.57;;
8803;SDS011;4438;50.890;4.726;2023-11-22T07:38:34;39.13;;;24.43;;
8803;SDS011;4438;50.890;4.726;2023-11-22T07:41:00;36.17;;;22.27;;
8803;SDS011;4438;50.890;4.726;2023-11-22T07:43:26;36.73;;;24.00;;
8803;SDS011;4438;50.890;4.726;2023-11-22T07:45:52;35.03;;;22.63;;
8803;SDS011;4438;50.890;4.726;2023-11-22T07:48:19;37.60;;;23.70;;
8803;SDS011;4438;50.890;4.726;2023-11-22T07:50:45;38.60;;;23.47;;
8803;SDS011;4438;50.890;4.726;2023-11-22T07:53:14;35.87;;;23.67;;
8803;SDS011;4438;50.890;4.726;2023-11-22T07:55:40;35.57;;;23.97;;
8803;SDS011;4438;50.890;4.726;2023-11-22T07:58:07;37.00;;;22.90;;
8803;SDS011;4438;50.890;4.726;2023-11-22T08:00:34;38.13;;;24.30;;
8803;SDS011;4438;50.890;4.726;2023-11-22T08:03:00;40.23;;;24.27;;
8803;SDS011;4438;50.890;4.726;2023-11-22T08:05:31;40.77;;;25.53;;
8803;SDS011;4438;50.890;4.726;2023-11-22T08:08:04;36.30;;;24.07;;
8803;SDS011;4438;50.890;4.726;2023-11-22T08:10:34;37.40;;;23.47;;
8803;SDS011;4438;50.890;4.726;2023-11-22T08:13:00;36.63;;;24.00;;
8803;SDS011;4438;50.890;4.726;2023-11-22T08:15:28;36.23;;;23.90;;
8803;SDS011;4438;50.890;4.726;2023-11-22T08:17:54;37.33;;;24.80;;
8803;SDS011;4438;50.890;4.726;2023-11-22T08:20:20;35.67;;;24.13;;
8803;SDS011;4438;50.890;4.726;2023-11-22T08:22:46;36.23;;;24.33;;
8803;SDS011;4438;50.890;4.726;2023-11-22T08:25:16;37.80;;;25.13;;
8803;SDS011;4438;50.890;4.726;2023-11-22T08:27:42;34.10;;;23.00;;
8803;SDS011;4438;50.890;4.726;2023-11-22T08:30:08;39.93;;;25.23;;
8803;SDS011;4438;50.890;4.726;2023-11-22T08:32:45;34.73;;;23.67;;
8803;SDS011;4438;50.890;4.726;2023-11-22T08:35:19;35.67;;;23.57;;
8803;SDS011;4438;50.890;4.726;2023-11-22T08:37:48;38.17;;;24.23;;
8803;SDS011;4438;50.890;4.726;2023-11-22T08:40:15;37.73;;;24.17;;
8803;SDS011;4438;50.890;4.726;2023-11-22T08:42:48;35.80;;;22.63;;
8803;SDS011;4438;50.890;4.726;2023-11-22T08:45:15;38.37;;;24.27;;
8803;SDS011;4438;50.890;4.726;2023-11-22T08:47:41;38.10;;;25.13;;
8803;SDS011;4438;50.890;4.726;2023-11-22T08:50:08;34.33;;;22.60;;
8803;SDS011;4438;50.890;4.726;2023-11-22T08:52:37;32.83;;;22.50;;
8803;SDS011;4438;50.890;4.726;2023-11-22T08:55:05;30.97;;;22.63;;
8803;SDS011;4438;50.890;4.726;2023-11-22T08:57:35;32.70;;;22.17;;
8803;SDS011;4438;50.890;4.726;2023-11-22T09:00:05;37.20;;;24.60;;
8803;SDS011;4438;50.890;4.726;2023-11-22T09:02:35;34.30;;;23.50;;
8803;SDS011;4438;50.890;4.726;2023-11-22T09:05:02;29.33;;;21.33;;
8803;SDS011;4438;50.890;4.726;2023-11-22T09:07:31;32.70;;;22.17;;
8803;SDS011;4438;50.890;4.726;2023-11-22T09:09:58;32.50;;;23.10;;
8803;SDS011;4438;50.890;4.726;2023-11-22T09:12:24;34.60;;;24.23;;
8803;SDS011;4438;50.890;4.726;2023-11-22T09:14:52;31.80;;;22.87;;
8803;SDS011;4438;50.890;4.726;2023-11-22T09:17:18;34.10;;;22.60;;
8803;SDS011;4438;50.890;4.726;2023-11-22T09:19:45;29.67;;;22.00;;
8803;SDS011;4438;50.890;4.726;2023-11-22T09:22:12;33.97;;;23.17;;
8803;SDS011;4438;50.890;4.726;2023-11-22T09:24:40;29.90;;;22.23;;
8803;SDS011;4438;50.890;4.726;2023-11-22T09:27:06;34.90;;;23.27;;
8803;SDS011;4438;50.890;4.726;2023-11-22T09:29:35;33.90;;;24.10;;
8803;SDS011;4438;50.890;4.726;2023-11-22T09:32:01;32.50;;;22.33;;
8803;SDS011;4438;50.890;4.726;2023-11-22T09:34:27;33.83;;;23.10;;
8803;SDS011;4438;50.890;4.726;2023-11-22T09:36:54;34.20;;;23.53;;
8803;SDS011;4438;50.890;4.726;2023-11-22T09:39:20;32.53;;;22.00;;
8803;SDS011;4438;50.890;4.726;2023-11-22T09:41:47;28.93;;;21.30;;
8803;SDS011;4438;50.890;4.726;2023-11-22T09:44:17;28.57;;;21.37;;
8803;SDS011;4438;50.890;4.726;2023-11-22T09:46:43;30.10;;;22.13;;
8803;SDS011;4438;50.890;4.726;2023-11-22T09:49:10;30.10;;;21.70;;
8803;SDS011;4438;50.890;4.726;2023-11-22T09:51:40;27.10;;;20.20;;
8803;SDS011;4438;50.890;4.726;2023-11-22T09:54:08;27.57;;;20.53;;
8803;SDS011;4438;50.890;4.726;2023-11-22T09:56:39;28.07;;;20.00;;
8803;SDS011;4438;50.890;4.726;2023-11-22T09:59:06;25.10;;;19.40;;
8803;SDS011;4438;50.890;4.726;2023-11-22T10:01:32;27.20;;;19.53;;
8803;SDS011;4438;50.890;4.726;2023-11-22T10:04:02;26.07;;;20.00;;
8803;SDS011;4438;50.890;4.726;2023-11-22T10:06:30;23.33;;;18.40;;
8803;SDS011;4438;50.890;4.726;2023-11-22T10:09:00;23.83;;;18.90;;
8803;SDS011;4438;50.890;4.726;2023-11-22T10:11:26;26.93;;;20.07;;
8803;SDS011;4438;50.890;4.726;2023-11-22T10:13:54;25.07;;;19.50;;
8803;SDS011;4438;50.890;4.726;2023-11-22T10:16:22;26.77;;;19.57;;
8803;SDS011;4438;50.890;4.726;2023-11-22T10:18:48;22.80;;;17.93;;
8803;SDS011;4438;50.890;4.726;2023-11-22T10:21:25;21.17;;;17.93;;
8803;SDS011;4438;50.890;4.726;2023-11-22T10:24:02;23.47;;;17.03;;
8803;SDS011;4438;50.890;4.726;2023-11-22T10:26:28;23.33;;;18.13;;
8803;SDS011;4438;50.890;4.726;2023-11-22T10:28:55;23.77;;;18.40;;
8803;SDS011;4438;50.890;4.726;2023-11-22T10:31:22;24.47;;;19.03;;
8803;SDS011;4438;50.890;4.726;2023-11-22T10:33:48;24.67;;;18.83;;
8803;SDS011;4438;50.890;4.726;2023-11-22T10:36:15;20.60;;;17.03;;
8803;SDS011;4438;50.890;4.726;2023-11-22T10:38:46;23.37;;;17.93;;
8803;SDS011;4438;50.890;4.726;2023-11-22T10:41:12;23.03;;;17.60;;
8803;SDS011;4438;50.890;4.726;2023-11-22T10:43:41;20.27;;;16.37;;
8803;SDS011;4438;50.890;4.726;2023-11-22T10:46:07;21.47;;;16.43;;
8803;SDS011;4438;50.890;4.726;2023-11-22T10:48:37;22.53;;;18.27;;
8803;SDS011;4438;50.890;4.726;2023-11-22T10:51:03;22.20;;;17.17;;
8803;SDS011;4438;50.890;4.726;2023-11-22T10:53:31;24.27;;;18.30;;
8803;SDS011;4438;50.890;4.726;2023-11-22T10:56:07;24.30;;;18.07;;
8803;SDS011;4438;50.890;4.726;2023-11-22T10:58:37;23.07;;;18.60;;
8803;SDS011;4438;50.890;4.726;2023-11-22T11:01:08;21.43;;;17.77;;
8803;SDS011;4438;50.890;4.726;2023-11-22T11:03:36;22.70;;;17.77;;
8803;SDS011;4438;50.890;4.726;2023-11-22T11:06:05;23.13;;;19.00;;
8803;SDS011;4438;50.890;4.726;2023-11-22T11:08:35;23.57;;;18.57;;
8803;SDS011;4438;50.890;4.726;2023-11-22T11:11:04;23.03;;;17.13;;
8803;SDS011;4438;50.890;4.726;2023-11-22T11:13:31;23.87;;;18.63;;
8803;SDS011;4438;50.890;4.726;2023-11-22T11:15:57;20.50;;;16.90;;
8803;SDS011;4438;50.890;4.726;2023-11-22T11:18:23;20.47;;;16.13;;
8803;SDS011;4438;50.890;4.726;2023-11-22T11:20:50;21.03;;;16.20;;
8803;SDS011;4438;50.890;4.726;2023-11-22T11:23:21;18.53;;;15.87;;
8803;SDS011;4438;50.890;4.726;2023-11-22T11:25:52;19.07;;;15.83;;
8803;SDS011;4438;50.890;4.726;2023-11-22T11:28:19;17.33;;;14.77;;
8803;SDS011;4438;50.890;4.726;2023-11-22T11:30:49;17.43;;;14.47;;
8803;SDS011;4438;50.890;4.726;2023-11-22T11:33:17;16.37;;;13.90;;
8803;SDS011;4438;50.890;4.726;2023-11-22T11:35:45;16.57;;;14.57;;
8803;SDS011;4438;50.890;4.726;2023-11-22T11:38:16;17.47;;;15.27;;
8803;SDS011;4438;50.890;4.726;2023-11-22T11:40:43;16.97;;;14.60;;
8803;SDS011;4438;50.890;4.726;2023-11-22T11:43:12;19.13;;;16.03;;
8803;SDS011;4438;50.890;4.726;2023-11-22T11:45:44;18.27;;;15.47;;
8803;SDS011;4438;50.890;4.726;2023-11-22T11:48:13;19.07;;;15.93;;
8803;SDS011;4438;50.890;4.726;2023-11-22T11:50:40;19.97;;;16.07;;
8803;SDS011;4438;50.890;4.726;2023-11-22T11:53:07;19.43;;;15.40;;
8803;SDS011;4438;50.890;4.726;2023-11-22T11:55:33;18.63;;;15.97;;
8803;SDS011;4438;50.890;4.726;2023-11-22T11:58:06;17.63;;;15.03;;
8803;SDS011;4438;50.890;4.726;2023-11-22T12:00:38;18.90;;;14.00;;
8803;SDS011;4438;50.890;4.726;2023-11-22T12:03:06;18.30;;;14.60;;
8803;SDS011;4438;50.890;4.726;2023-11-22T12:05:35;17.53;;;14.13;;
8803;SDS011;4438;50.890;4.726;2023-11-22T12:08:01;18.27;;;15.03;;
8803;SDS011;4438;50.890;4.726;2023-11-22T12:10:28;15.80;;;13.50;;
8803;SDS011;4438;50.890;4.726;2023-11-22T12:12:54;16.10;;;13.57;;
8803;SDS011;4438;50.890;4.726;2023-11-22T12:15:21;16.07;;;13.40;;
8803;SDS011;4438;50.890;4.726;2023-11-22T12:17:50;17.33;;;14.67;;
8803;SDS011;4438;50.890;4.726;2023-11-22T12:20:17;16.77;;;14.40;;
8803;SDS011;4438;50.890;4.726;2023-11-22T12:22:46;15.23;;;13.63;;
8803;SDS011;4438;50.890;4.726;2023-11-22T12:25:13;15.00;;;13.03;;
8803;SDS011;4438;50.890;4.726;2023-11-22T12:27:43;14.57;;;13.03;;
8803;SDS011;4438;50.890;4.726;2023-11-22T12:30:27;15.43;;;12.83;;
8803;SDS011;4438;50.890;4.726;2023-11-22T12:32:54;14.83;;;12.63;;
8803;SDS011;4438;50.890;4.726;2023-11-22T12:35:21;15.73;;;12.70;;
8803;SDS011;4438;50.890;4.726;2023-11-22T12:37:48;15.47;;;13.40;;
8803;SDS011;4438;50.890;4.726;2023-11-22T12:40:15;15.03;;;12.73;;
8803;SDS011;4438;50.890;4.726;2023-11-22T12:42:49;14.53;;;12.77;;
8803;SDS011;4438;50.890;4.726;2023-11-22T12:45:19;14.93;;;13.17;;
8803;SDS011;4438;50.890;4.726;2023-11-22T12:47:45;15.30;;;13.07;;
8803;SDS011;4438;50.890;4.726;2023-11-22T12:53:13;15.47;;;12.70;;
8803;SDS011;4438;50.890;4.726;2023-11-22T12:55:42;14.17;;;12.40;;
8803;SDS011;4438;50.890;4.726;2023-11-22T12:58:14;14.70;;;13.10;;
8803;SDS011;4438;50.890;4.726;2023-11-22T13:00:40;15.07;;;12.33;;
8803;SDS011;4438;50.890;4.726;2023-11-22T13:03:06;15.17;;;13.10;;
8803;SDS011;4438;50.890;4.726;2023-11-22T13:05:32;16.03;;;12.63;;
8803;SDS011;4438;50.890;4.726;2023-11-22T13:07:58;14.47;;;12.00;;
8803;SDS011;4438;50.890;4.726;2023-11-22T13:10:25;14.73;;;12.97;;
8803;SDS011;4438;50.890;4.726;2023-11-22T13:12:51;14.53;;;12.23;;
8803;SDS011;4438;50.890;4.726;2023-11-22T13:15:19;13.47;;;11.63;;
8803;SDS011;4438;50.890;4.726;2023-11-22T13:17:46;15.10;;;12.33;;
8803;SDS011;4438;50.890;4.726;2023-11-22T13:20:12;13.20;;;11.77;;
8803;SDS011;4438;50.890;4.726;2023-11-22T13:22:40;15.27;;;12.17;;
8803;SDS011;4438;50.890;4.726;2023-11-22T13:25:07;14.27;;;12.87;;
8803;SDS011;4438;50.890;4.726;2023-11-22T13:27:35;13.50;;;12.13;;
8803;SDS011;4438;50.890;4.726;2023-11-22T13:30:02;13.93;;;12.50;;
8803;SDS011;4438;50.890;4.726;2023-11-22T13:32:29;13.27;;;11.80;;
8803;SDS011;4438;50.890;4.726;2023-11-22T13:34:55;13.33;;;11.93;;
8803;SDS011;4438;50.890;4.726;2023-11-22T13:37:22;13.20;;;11.90;;
8803;SDS011;4438;50.890;4.726;2023-11-22T13:39:49;13.17;;;11.83;;
8803;SDS011;4438;50.890;4.726;2023-11-22T13:42:15;12.60;;;11.20;;
8803;SDS011;4438;50.890;4.726;2023-11-22T13:44:41;12.13;;;10.83;;
8803;SDS011;4438;50.890;4.726;2023-11-22T13:47:09;13.60;;;12.30;;
8803;SDS011;4438;50.890;4.726;2023-11-22T13:49:35;12.80;;;11.50;;
8803;SDS011;4438;50.890;4.726;2023-11-22T13:52:02;13.37;;;12.03;;
8803;SDS011;4438;50.890;4.726;2023-11-22T13:54:28;12.20;;;11.00;;
8803;SDS011;4438;50.890;4.726;2023-11-22T13:56:54;13.90;;;12.53;;
8803;SDS011;4438;50.890;4.726;2023-11-22T13:59:21;14.00;;;12.47;;
8803;SDS011;4438;50.890;4.726;2023-11-22T14:01:47;11.83;;;10.73;;
8803;SDS011;4438;50.890;4.726;2023-11-22T14:04:13;13.03;;;11.70;;
8803;SDS011;4438;50.890;4.726;2023-11-22T14:06:39;12.20;;;11.00;;
8803;SDS011;4438;50.890;4.726;2023-11-22T14:09:05;13.07;;;11.63;;
8803;SDS011;4438;50.890;4.726;2023-11-22T14:11:33;14.63;;;11.97;;
8803;SDS011;4438;50.890;4.726;2023-11-22T14:14:02;14.03;;;12.53;;
8803;SDS011;4438;50.890;4.726;2023-11-22T14:16:29;13.90;;;12.50;;
8803;SDS011;4438;50.890;4.726;2023-11-22T14:18:56;14.83;;;13.30;;
8803;SDS011;4438;50.890;4.726;2023-11-22T14:21:25;13.80;;;12.27;;
8803;SDS011;4438;50.890;4.726;2023-11-22T14:23:51;15.63;;;11.83;;
8803;SDS011;4438;50.890;4.726;2023-11-22T14:26:18;13.80;;;12.10;;
8803;SDS011;4438;50.890;4.726;2023-11-22T14:28:44;13.33;;;11.93;;
8803;SDS011;4438;50.890;4.726;2023-11-22T14:31:10;14.53;;;12.40;;
8803;SDS011;4438;50.890;4.726;2023-11-22T14:33:37;13.67;;;12.10;;
8803;SDS011;4438;50.890;4.726;2023-11-22T14:36:04;13.73;;;11.93;;
8803;SDS011;4438;50.890;4.726;2023-11-22T14:38:31;13.97;;;12.43;;
8803;SDS011;4438;50.890;4.726;2023-11-22T14:40:58;14.50;;;12.13;;
8803;SDS011;4438;50.890;4.726;2023-11-22T14:43:24;14.30;;;12.17;;
8803;SDS011;4438;50.890;4.726;2023-11-22T14:45:50;15.17;;;11.97;;
8803;SDS011;4438;50.890;4.726;2023-11-22T14:48:16;16.93;;;12.73;;
8803;SDS011;4438;50.890;4.726;2023-11-22T14:50:42;14.90;;;12.80;;